Main page
METAR-TAF:

METAR-TAF

Airports :

Qurghonteppa International Airport

Qurghonteppa, Tajikistan

latitude: 37-51-44N, longitude: 068-51-46E, elevation: 449 m

Current weather observation

The report was made 42 minutes ago, at 03:30 UTC
Wind 4 kt from the West, varying between West/Southwest and North/Northeast
Temperature 4°C
Humidity 81%
Pressure 1021 hPa
Visibility: 5000 m
mist

METAR: UTDT 010330Z 27002MPS 240V030 5000 BR NSC 04/01 Q1021 R35/CLRD70 RMK QFE726/0968

Time: 09:12 (04:12 UTC)

Forecast

The report was made 1 hour and 12 minutes ago, at 03:00 UTC
Forecast valid from 01 at 04 UTC to 01 at 13 UTC
Wind 4 kt from variable directions
Visibility: 6000 m
Temporary
from 01 at 04 UTC to 01 at 05 UTC
Visibility: 3100 m
mist, smoke

TAF: UTDT 010300Z 0104/0113 VRB02MPS 6000 NSC TEMPO 0104/0105 3100 BR FU

Weather observations and forecasts of more than 4000 airports (METAR and TAF reports).

The available stations are represented by yellow and red dots on the map.

Hover mouse over dot to see the name of the station.

Then click to see weather observations and forecasts.

To change the map : click on the green buttons with a black cross to zoom in, on the green button with a dash to zoom out, or on the green arrows for adjacent maps.


METAR-TAF: